Time;durP1;ratioP1;P1;durP2;ratioP2;P2;SDS_P1;SDS_P2;PMS_P1;PMS_P2;Temp;Humidity;BMP_temperature;BMP_pressure;BME280_temperature;BME280_humidity;BME280_pressure;Samples;Min_cycle;Max_cycle;Signal;HPM_P1;HPM_P2
2023/05/14 00:00:28;;;;;;;;;;;16.90;99.90;;;;;;7335009;19;109869;-68
2023/05/14 00:02:55;;;;;;;;;;;16.90;99.90;;;;;;7333280;19;110184;-68
2023/05/14 00:05:23;;;;;;;;;;;16.80;99.90;;;;;;7338750;19;111515;-68
2023/05/14 00:07:53;;;;;;;;;;;16.80;99.90;;;;;;7333738;19;111677;-70
2023/05/14 00:10:20;;;;;;;;;;;16.80;99.90;;;;;;7344669;19;111852;-68
2023/05/14 00:12:50;;;;;;;;;;;16.80;99.90;;;;;;7335129;19;110235;-70
2023/05/14 00:15:17;;;;;;;;;;;16.80;99.90;;;;;;7336509;19;109532;-68
2023/05/14 00:17:44;;;;;;;;;;;16.80;99.90;;;;;;7341011;19;110320;-69
2023/05/14 00:20:11;;;;;;;;;;;16.70;99.90;;;;;;7336857;19;109731;-71
2023/05/14 00:22:39;;;;;;;;;;;16.80;99.90;;;;;;7334888;19;110443;-68
2023/05/14 00:25:06;;;;;;;;;;;16.70;99.90;;;;;;7340751;19;110631;-69
2023/05/14 00:27:34;;;;;;;;;;;16.60;99.90;;;;;;7338347;19;110103;-68
2023/05/14 00:30:01;;;;;;;;;;;16.60;99.90;;;;;;7335377;19;110556;-69
2023/05/14 00:32:28;;;;;;;;;;;16.60;99.90;;;;;;7344222;19;110119;-68
2023/05/14 00:34:55;;;;;;;;;;;16.50;99.90;;;;;;7334869;19;111044;-69
2023/05/14 00:37:22;;;;;;;;;;;16.50;99.90;;;;;;7332775;19;112328;-68
2023/05/14 00:39:49;;;;;;;;;;;16.40;99.90;;;;;;7340465;19;110740;-68
2023/05/14 00:42:16;;;;;;;;;;;16.40;99.90;;;;;;7338177;19;109734;-68
2023/05/14 00:44:43;;;;;;;;;;;16.30;99.90;;;;;;7338794;19;110939;-68
2023/05/14 00:47:10;;;;;;;;;;;16.20;99.90;;;;;;7336130;19;111035;-68
2023/05/14 00:49:39;;;;;;;;;;;16.10;99.90;;;;;;7337866;19;112934;-68
2023/05/14 00:52:07;;;;;;;;;;;16.10;99.90;;;;;;7338284;19;110130;-68
2023/05/14 00:54:35;;;;;;;;;;;16.00;99.90;;;;;;7343968;19;111219;-70
2023/05/14 00:57:02;;;;;;;;;;;16.00;99.90;;;;;;7337106;19;110726;-74
2023/05/14 00:59:29;;;;;;;;;;;16.00;99.90;;;;;;7339301;19;109532;-73
2023/05/14 01:01:56;;;;;;;;;;;15.90;99.90;;;;;;7336490;19;110244;-72
2023/05/14 01:04:23;;;;;;;;;;;15.90;99.90;;;;;;7334001;19;110110;-73
2023/05/14 01:07:13;;;;;;;;;;;15.80;99.90;;;;;;7338960;19;109645;-76
2023/05/14 01:10:00;;;;;;;;;;;15.80;99.90;;;;;;7334201;19;111376;-73
2023/05/14 01:12:56;;;;;;;;;;;15.70;99.90;;;;;;7336100;19;110197;-69
2023/05/14 01:15:25;;;;;;;;;;;15.70;99.90;;;;;;7336434;19;111670;-68
2023/05/14 01:17:54;;;;;;;;;;;15.70;99.90;;;;;;7332757;19;111184;-69
2023/05/14 01:20:22;;;;;;;;;;;15.60;99.90;;;;;;7331541;19;109625;-68
2023/05/14 01:22:49;;;;;;;;;;;15.60;99.90;;;;;;7331290;19;110552;-69
2023/05/14 01:25:16;;;;;;;;;;;15.50;99.90;;;;;;7326595;19;112351;-69
2023/05/14 01:28:02;;;;;;;;;;;15.50;99.90;;;;;;7332818;19;111051;-68
2023/05/14 01:30:29;;;;;;;;;;;15.50;99.90;;;;;;7329521;19;110536;-69
2023/05/14 01:32:59;;;;;;;;;;;15.40;99.90;;;;;;7333079;19;110283;-68
2023/05/14 01:35:27;;;;;;;;;;;15.30;99.90;;;;;;7330142;19;109851;-69
2023/05/14 01:37:55;;;;;;;;;;;15.40;99.90;;;;;;7335847;19;110262;-68
2023/05/14 01:40:23;;;;;;;;;;;15.40;99.90;;;;;;7326631;19;111021;-68
2023/05/14 01:42:51;;;;;;;;;;;15.40;99.90;;;;;;7332936;19;110020;-68
2023/05/14 01:45:22;;;;;;;;;;;15.40;99.90;;;;;;7328687;19;110948;-68
2023/05/14 01:47:49;;;;;;;;;;;15.40;99.90;;;;;;7328901;19;109707;-68
2023/05/14 01:50:16;;;;;;;;;;;15.40;99.90;;;;;;7329713;19;111521;-68
2023/05/14 01:52:44;;;;;;;;;;;15.40;99.90;;;;;;7329863;19;112222;-68
2023/05/14 01:55:11;;;;;;;;;;;15.30;99.90;;;;;;7334507;19;110768;-68
2023/05/14 01:57:38;;;;;;;;;;;15.30;99.90;;;;;;7333978;19;109673;-68
2023/05/14 02:00:05;;;;;;;;;;;15.30;99.90;;;;;;7337377;19;110952;-73
2023/05/14 02:02:32;;;;;;;;;;;15.30;99.90;;;;;;7335973;19;109737;-71
2023/05/14 02:04:59;;;;;;;;;;;15.30;99.90;;;;;;7332265;19;110294;-72
2023/05/14 02:07:27;;;;;;;;;;;15.30;99.90;;;;;;7334608;19;109868;-71
2023/05/14 02:09:54;;;;;;;;;;;15.20;99.90;;;;;;7334731;19;109661;-70
2023/05/14 02:12:21;;;;;;;;;;;15.20;99.90;;;;;;7335972;19;111703;-69
2023/05/14 02:14:48;;;;;;;;;;;15.20;99.90;;;;;;7336040;19;110729;-68
2023/05/14 02:22:47;;;;;;;;;;;15.10;99.90;;;;;;7327398;19;110901;-69
2023/05/14 02:25:14;;;;;;;;;;;15.00;99.90;;;;;;7331357;19;110842;-68
2023/05/14 02:27:41;;;;;;;;;;;15.00;99.90;;;;;;7333819;19;110328;-68
2023/05/14 02:30:09;;;;;;;;;;;14.90;99.90;;;;;;7330229;19;111429;-68
2023/05/14 02:32:37;;;;;;;;;;;14.90;99.90;;;;;;7337273;19;111053;-68
2023/05/14 02:35:04;;;;;;;;;;;14.90;99.90;;;;;;7330680;19;109681;-68
2023/05/14 02:37:31;;;;;;;;;;;14.80;99.90;;;;;;7332085;19;109748;-68
2023/05/14 02:39:58;;;;;;;;;;;14.90;99.90;;;;;;7335424;19;110137;-68
2023/05/14 02:42:25;;;;;;;;;;;14.90;99.90;;;;;;7335971;19;109390;-68
2023/05/14 02:44:52;;;;;;;;;;;14.80;99.90;;;;;;7338992;19;114605;-68
2023/05/14 02:47:20;;;;;;;;;;;14.80;99.90;;;;;;7330206;19;109938;-68
2023/05/14 02:49:47;;;;;;;;;;;14.80;99.90;;;;;;7331738;19;109965;-68
2023/05/14 02:52:14;;;;;;;;;;;14.80;99.90;;;;;;7332774;19;110279;-68
2023/05/14 02:54:41;;;;;;;;;;;14.80;99.90;;;;;;7332389;19;109884;-68
2023/05/14 02:57:08;;;;;;;;;;;14.80;99.90;;;;;;7332153;19;110295;-68
2023/05/14 02:59:35;;;;;;;;;;;14.70;99.90;;;;;;7336119;19;111453;-68
2023/05/14 03:02:03;;;;;;;;;;;14.70;99.90;;;;;;7325867;19;109713;-68
2023/05/14 03:04:31;;;;;;;;;;;14.70;99.90;;;;;;7337757;19;110400;-68
2023/05/14 03:06:58;;;;;;;;;;;14.70;99.90;;;;;;7331902;19;112088;-68
2023/05/14 03:09:25;;;;;;;;;;;14.60;99.90;;;;;;7331058;19;109853;-68
2023/05/14 03:11:53;;;;;;;;;;;14.60;99.90;;;;;;7332269;19;112489;-68
2023/05/14 03:14:21;;;;;;;;;;;14.60;99.90;;;;;;7333276;19;109956;-69
2023/05/14 03:16:48;;;;;;;;;;;14.60;99.90;;;;;;7333411;19;109612;-68
2023/05/14 03:19:15;;;;;;;;;;;14.60;99.90;;;;;;7332364;19;111623;-69
2023/05/14 03:21:44;;;;;;;;;;;14.50;99.90;;;;;;7333570;19;112348;-68
2023/05/14 03:24:11;;;;;;;;;;;14.50;99.90;;;;;;7329695;19;110640;-69
2023/05/14 03:26:38;;;;;;;;;;;14.50;99.90;;;;;;7340475;19;111371;-69
2023/05/14 03:29:05;;;;;;;;;;;14.50;99.90;;;;;;7330984;19;111027;-68
2023/05/14 03:31:33;;;;;;;;;;;14.50;99.90;;;;;;7331633;19;111091;-67
2023/05/14 03:34:00;;;;;;;;;;;14.50;99.90;;;;;;7333820;19;110346;-68
2023/05/14 03:36:27;;;;;;;;;;;14.40;99.90;;;;;;7332597;19;109717;-68
2023/05/14 03:38:54;;;;;;;;;;;14.40;99.90;;;;;;7329432;19;110925;-68
2023/05/14 03:41:21;;;;;;;;;;;14.40;99.90;;;;;;7333338;19;109585;-68
2023/05/14 03:43:48;;;;;;;;;;;14.40;99.90;;;;;;7335039;19;109716;-68
2023/05/14 03:46:15;;;;;;;;;;;14.30;99.90;;;;;;7329128;19;110207;-68
2023/05/14 03:48:42;;;;;;;;;;;14.30;99.90;;;;;;7336564;19;115211;-69
2023/05/14 03:51:09;;;;;;;;;;;14.30;99.90;;;;;;7331062;19;111391;-68
2023/05/14 03:53:37;;;;;;;;;;;14.20;99.90;;;;;;7329802;19;111144;-68
2023/05/14 03:56:04;;;;;;;;;;;14.20;99.90;;;;;;7332938;19;110416;-69
2023/05/14 03:58:31;;;;;;;;;;;14.20;99.90;;;;;;7332967;19;111440;-68
2023/05/14 04:00:59;;;;;;;;;;;14.20;99.90;;;;;;7331709;19;109847;-68
2023/05/14 04:03:26;;;;;;;;;;;14.20;99.90;;;;;;7330862;19;110506;-68
2023/05/14 04:05:53;;;;;;;;;;;14.10;99.90;;;;;;7330790;19;110101;-68
2023/05/14 04:08:20;;;;;;;;;;;14.10;99.90;;;;;;7331040;19;109592;-68
2023/05/14 04:10:47;;;;;;;;;;;14.10;99.90;;;;;;7336787;19;110390;-68
2023/05/14 04:13:14;;;;;;;;;;;14.00;99.90;;;;;;7330055;19;113843;-68
2023/05/14 04:15:41;;;;;;;;;;;14.00;99.90;;;;;;7328582;19;110258;-68
2023/05/14 04:18:08;;;;;;;;;;;14.00;99.90;;;;;;7330953;19;110136;-68
2023/05/14 04:20:35;;;;;;;;;;;14.00;99.90;;;;;;7331194;19;110129;-68
2023/05/14 04:23:02;;;;;;;;;;;14.00;99.90;;;;;;7325080;19;111732;-68
2023/05/14 04:25:29;;;;;;;;;;;14.00;99.90;;;;;;7327839;19;111347;-68
2023/05/14 04:27:57;;;;;;;;;;;14.00;99.90;;;;;;7327102;19;111252;-68
2023/05/14 04:30:25;;;;;;;;;;;13.90;99.90;;;;;;7327577;19;110192;-68
2023/05/14 04:32:52;;;;;;;;;;;13.90;99.90;;;;;;7334126;19;110409;-68
2023/05/14 04:35:20;;;;;;;;;;;13.90;99.90;;;;;;7325615;19;109867;-68
2023/05/14 04:37:50;;;;;;;;;;;13.90;99.90;;;;;;7321382;19;111197;-68
2023/05/14 04:40:17;;;;;;;;;;;13.90;99.90;;;;;;7325498;19;109418;-68
2023/05/14 04:42:44;;;;;;;;;;;13.90;99.90;;;;;;7329110;19;109672;-68
2023/05/14 04:45:12;;;;;;;;;;;13.90;99.90;;;;;;7326148;19;111099;-68
2023/05/14 04:47:40;;;;;;;;;;;13.90;99.90;;;;;;7334155;19;109535;-68
2023/05/14 04:50:08;;;;;;;;;;;13.90;99.90;;;;;;7334012;19;111621;-68
2023/05/14 04:52:35;;;;;;;;;;;13.90;99.90;;;;;;7333305;19;111469;-68
2023/05/14 04:55:03;;;;;;;;;;;13.90;99.90;;;;;;7340974;19;110277;-68
2023/05/14 04:57:30;;;;;;;;;;;13.90;99.90;;;;;;7339154;19;110547;-68
2023/05/14 04:59:57;;;;;;;;;;;13.90;99.90;;;;;;7337753;19;109717;-68
2023/05/14 05:02:24;;;;;;;;;;;13.90;99.90;;;;;;7335069;19;111837;-68
2023/05/14 05:04:51;;;;;;;;;;;13.90;99.90;;;;;;7332785;19;111702;-68
2023/05/14 05:07:18;;;;;;;;;;;13.90;99.90;;;;;;7337291;19;109612;-68
2023/05/14 05:09:45;;;;;;;;;;;13.90;99.90;;;;;;7334540;19;110394;-67
2023/05/14 05:12:12;;;;;;;;;;;14.00;99.90;;;;;;7336158;19;112935;-67
2023/05/14 05:14:39;;;;;;;;;;;14.00;99.90;;;;;;7339393;19;109515;-68
2023/05/14 05:17:06;;;;;;;;;;;13.90;99.90;;;;;;7337308;19;110127;-68
2023/05/14 05:19:33;;;;;;;;;;;14.00;99.90;;;;;;7333387;19;109918;-68
2023/05/14 05:22:10;;;;;;;;;;;14.00;99.90;;;;;;7335887;19;112159;-68
2023/05/14 05:24:37;;;;;;;;;;;14.00;99.90;;;;;;7334460;19;112384;-68
2023/05/14 05:27:04;;;;;;;;;;;14.00;99.90;;;;;;7335166;19;109679;-68
2023/05/14 05:29:31;;;;;;;;;;;14.00;99.90;;;;;;7336797;19;111771;-68
2023/05/14 05:31:58;;;;;;;;;;;14.10;99.90;;;;;;7335893;19;110701;-68
2023/05/14 05:34:26;;;;;;;;;;;14.10;99.90;;;;;;7337143;19;110937;-68
2023/05/14 05:36:53;;;;;;;;;;;14.20;99.90;;;;;;7342274;19;111861;-68
2023/05/14 05:39:20;;;;;;;;;;;14.20;99.90;;;;;;7332202;19;111839;-68
2023/05/14 05:41:47;;;;;;;;;;;14.30;99.90;;;;;;7337290;19;109781;-68
2023/05/14 05:44:14;;;;;;;;;;;14.30;99.90;;;;;;7331870;19;110098;-68
2023/05/14 05:46:41;;;;;;;;;;;14.40;99.90;;;;;;7336406;19;109939;-68
2023/05/14 05:49:08;;;;;;;;;;;14.50;99.90;;;;;;7336002;19;109443;-69
2023/05/14 05:51:35;;;;;;;;;;;14.50;99.90;;;;;;7333134;19;111445;-68
2023/05/14 05:54:02;;;;;;;;;;;14.50;99.90;;;;;;7337774;19;111367;-68
2023/05/14 05:56:29;;;;;;;;;;;14.60;99.90;;;;;;7334472;19;109898;-68
2023/05/14 05:58:56;;;;;;;;;;;14.70;99.90;;;;;;7340851;19;111346;-68
2023/05/14 06:01:23;;;;;;;;;;;14.70;99.90;;;;;;7330762;19;112245;-68
2023/05/14 06:03:50;;;;;;;;;;;14.80;99.90;;;;;;7337902;19;110871;-68
2023/05/14 06:06:17;;;;;;;;;;;14.80;99.90;;;;;;7328582;19;112192;-68
2023/05/14 06:08:44;;;;;;;;;;;14.90;99.90;;;;;;7332983;19;111892;-68
2023/05/14 06:11:11;;;;;;;;;;;15.00;99.90;;;;;;7331442;19;111403;-69
2023/05/14 06:13:38;;;;;;;;;;;15.10;99.90;;;;;;7328924;19;111502;-68
2023/05/14 06:16:05;;;;;;;;;;;15.20;99.90;;;;;;7330974;19;109685;-68
2023/05/14 06:18:32;;;;;;;;;;;15.20;99.90;;;;;;7336744;19;114280;-68
2023/05/14 06:21:00;;;;;;;;;;;15.20;99.90;;;;;;7333998;19;111115;-68
2023/05/14 06:23:28;;;;;;;;;;;15.20;99.90;;;;;;7332283;19;111174;-67
2023/05/14 06:25:55;;;;;;;;;;;15.30;99.90;;;;;;7334543;19;110206;-68
2023/05/14 06:28:23;;;;;;;;;;;15.30;99.90;;;;;;7333723;19;112692;-68
2023/05/14 06:30:50;;;;;;;;;;;15.20;99.90;;;;;;7332946;19;110123;-68
2023/05/14 06:33:17;;;;;;;;;;;15.20;99.90;;;;;;7333359;19;109566;-69
2023/05/14 06:35:46;;;;;;;;;;;15.20;99.90;;;;;;7333527;19;109747;-68
2023/05/14 06:38:13;;;;;;;;;;;15.30;99.90;;;;;;7334462;19;112636;-68
2023/05/14 06:40:40;;;;;;;;;;;15.50;99.90;;;;;;7333369;19;110850;-68
2023/05/14 06:43:07;;;;;;;;;;;15.60;99.90;;;;;;7339817;19;109532;-68
2023/05/14 06:45:34;;;;;;;;;;;15.70;99.90;;;;;;7331200;19;109497;-68
2023/05/14 06:48:01;;;;;;;;;;;15.70;99.90;;;;;;7335814;19;109913;-70
2023/05/14 06:50:28;;;;;;;;;;;15.70;99.90;;;;;;7333574;19;110657;-68
2023/05/14 06:52:55;;;;;;;;;;;15.80;99.90;;;;;;7335912;19;110906;-68
2023/05/14 06:55:22;;;;;;;;;;;15.80;99.90;;;;;;7332114;19;114826;-68
2023/05/14 06:57:50;;;;;;;;;;;15.90;99.90;;;;;;7334736;19;110398;-68
2023/05/14 07:00:20;;;;;;;;;;;16.10;99.90;;;;;;7332147;19;111486;-69
2023/05/14 07:02:47;;;;;;;;;;;16.10;99.90;;;;;;7333806;19;109685;-69
2023/05/14 07:05:14;;;;;;;;;;;16.10;99.90;;;;;;7334325;19;111930;-69
2023/05/14 07:07:41;;;;;;;;;;;16.20;99.90;;;;;;7333223;19;110344;-69
2023/05/14 07:10:11;;;;;;;;;;;16.30;99.90;;;;;;7325949;19;111126;-68
2023/05/14 07:12:38;;;;;;;;;;;16.40;99.90;;;;;;7334750;19;112257;-67
2023/05/14 07:15:05;;;;;;;;;;;16.40;99.90;;;;;;7330632;19;110985;-68
2023/05/14 07:17:32;;;;;;;;;;;16.50;99.90;;;;;;7331995;19;111131;-68
2023/05/14 07:19:59;;;;;;;;;;;16.50;99.90;;;;;;7331290;19;110656;-68
2023/05/14 07:22:27;;;;;;;;;;;16.60;99.90;;;;;;7333380;19;110487;-68
2023/05/14 07:24:56;;;;;;;;;;;16.70;99.90;;;;;;7335670;19;112116;-68
2023/05/14 07:27:24;;;;;;;;;;;16.70;99.90;;;;;;7331368;19;110015;-68
2023/05/14 07:29:51;;;;;;;;;;;16.70;99.90;;;;;;7332870;19;111259;-68
2023/05/14 07:32:18;;;;;;;;;;;16.70;99.90;;;;;;7330230;19;110503;-67
2023/05/14 07:34:45;;;;;;;;;;;16.70;99.90;;;;;;7334179;19;110001;-68
2023/05/14 07:37:12;;;;;;;;;;;16.60;99.90;;;;;;7331201;19;110614;-68
2023/05/14 07:39:40;;;;;;;;;;;16.70;99.90;;;;;;7332851;19;112628;-68
2023/05/14 07:42:07;;;;;;;;;;;16.90;99.90;;;;;;7351469;19;109494;-67
2023/05/14 07:44:35;;;;;;;;;;;17.10;99.90;;;;;;7348709;19;110002;-68
2023/05/14 07:47:03;;;;;;;;;;;17.10;99.90;;;;;;7358958;19;109100;-67
2023/05/14 07:49:30;;;;;;;;;;;17.20;99.90;;;;;;7348035;19;109764;-66
2023/05/14 07:51:57;;;;;;;;;;;17.20;99.90;;;;;;7348478;19;111446;-68
2023/05/14 07:54:24;;;;;;;;;;;17.20;99.90;;;;;;7349175;19;110061;-72
2023/05/14 07:56:51;;;;;;;;;;;17.30;99.90;;;;;;7345845;19;110288;-72
2023/05/14 07:59:18;;;;;;;;;;;17.50;99.90;;;;;;7335253;19;109486;-72
2023/05/14 08:01:45;;;;;;;;;;;17.60;99.90;;;;;;7332426;19;110843;-73
2023/05/14 08:04:14;;;;;;;;;;;17.90;99.90;;;;;;7333630;19;109997;-73
2023/05/14 08:06:42;;;;;;;;;;;18.00;99.90;;;;;;7332362;19;111518;-74
2023/05/14 08:09:09;;;;;;;;;;;18.10;99.90;;;;;;7337923;19;111830;-74
2023/05/14 08:11:36;;;;;;;;;;;18.20;99.90;;;;;;7333573;19;109454;-75
2023/05/14 08:14:03;;;;;;;;;;;18.20;99.90;;;;;;7330269;19;110431;-74
2023/05/14 08:16:30;;;;;;;;;;;18.30;99.90;;;;;;7332214;19;111940;-76
2023/05/14 08:18:57;;;;;;;;;;;18.40;99.90;;;;;;7334740;19;109317;-75
2023/05/14 08:21:24;;;;;;;;;;;18.40;99.90;;;;;;7338146;19;109682;-77
2023/05/14 08:23:51;;;;;;;;;;;18.30;99.90;;;;;;7341154;19;110761;-75
2023/05/14 08:26:18;;;;;;;;;;;18.30;99.90;;;;;;7342289;19;109384;-77
2023/05/14 08:28:45;;;;;;;;;;;18.40;99.90;;;;;;7342439;19;111232;-77
2023/05/14 08:31:13;;;;;;;;;;;18.40;99.90;;;;;;7344384;19;111626;-76
2023/05/14 08:33:40;;;;;;;;;;;18.60;99.90;;;;;;7342369;19;111077;-76
2023/05/14 08:36:07;;;;;;;;;;;18.80;99.90;;;;;;7339762;19;110226;-77
2023/05/14 08:38:34;;;;;;;;;;;18.90;99.90;;;;;;7335512;19;109448;-77
2023/05/14 08:41:04;;;;;;;;;;;19.00;99.90;;;;;;7336065;19;113228;-79
2023/05/14 08:43:55;;;;;;;;;;;19.00;99.90;;;;;;7337289;19;110517;-78
2023/05/14 08:46:23;;;;;;;;;;;19.10;99.90;;;;;;7336399;19;110260;-75
2023/05/14 08:48:55;;;;;;;;;;;19.10;99.90;;;;;;7336799;19;110365;-75
2023/05/14 08:51:22;;;;;;;;;;;19.10;99.90;;;;;;7332450;19;111113;-76
2023/05/14 08:53:50;;;;;;;;;;;19.20;99.90;;;;;;7341765;19;111368;-74
2023/05/14 08:56:18;;;;;;;;;;;19.30;99.90;;;;;;7335977;19;110920;-74
2023/05/14 08:58:45;;;;;;;;;;;19.30;99.90;;;;;;7337604;19;109526;-74
2023/05/14 09:01:12;;;;;;;;;;;19.20;99.90;;;;;;7337285;19;110605;-73
2023/05/14 09:03:39;;;;;;;;;;;19.20;99.90;;;;;;7333690;19;110422;-75
2023/05/14 09:06:07;;;;;;;;;;;19.00;99.90;;;;;;7338524;19;111207;-75
2023/05/14 09:08:35;;;;;;;;;;;18.90;99.90;;;;;;7337390;19;109496;-69
2023/05/14 09:11:02;;;;;;;;;;;18.80;99.90;;;;;;7340047;19;110950;-76
2023/05/14 09:13:29;;;;;;;;;;;18.90;99.90;;;;;;7338164;19;109769;-74
2023/05/14 09:15:57;;;;;;;;;;;19.00;99.90;;;;;;7341991;19;109782;-73
2023/05/14 09:18:24;;;;;;;;;;;19.00;99.90;;;;;;7333903;19;109674;-73
2023/05/14 09:20:52;;;;;;;;;;;19.10;99.90;;;;;;7340177;19;110492;-82
2023/05/14 09:23:19;;;;;;;;;;;19.10;99.90;;;;;;7329925;19;112644;-81
2023/05/14 09:25:46;;;;;;;;;;;19.00;99.90;;;;;;7330329;19;109974;-83
2023/05/14 09:28:15;;;;;;;;;;;19.10;99.90;;;;;;7332548;19;110871;-83
2023/05/14 09:30:46;;;;;;;;;;;19.30;99.90;;;;;;7322968;19;111507;-82
2023/05/14 09:33:24;;;;;;;;;;;19.10;99.90;;;;;;7324410;19;111418;-83
2023/05/14 09:35:51;;;;;;;;;;;19.30;99.90;;;;;;7329316;19;113511;-82
2023/05/14 09:38:18;;;;;;;;;;;19.50;99.90;;;;;;7326092;19;109877;-82
2023/05/14 09:40:45;;;;;;;;;;;19.60;99.90;;;;;;7328723;19;110698;-83
2023/05/14 09:43:12;;;;;;;;;;;19.70;99.90;;;;;;7330087;19;111360;-83
2023/05/14 09:45:39;;;;;;;;;;;19.80;99.90;;;;;;7323906;19;111549;-85
2023/05/14 09:48:07;;;;;;;;;;;19.90;99.90;;;;;;7326629;19;110800;-84
2023/05/14 09:50:40;;;;;;;;;;;20.00;99.90;;;;;;7331343;19;111843;-83
2023/05/14 09:53:07;;;;;;;;;;;20.00;99.90;;;;;;7332652;19;109825;-82
2023/05/14 09:55:35;;;;;;;;;;;20.00;99.90;;;;;;7328977;19;110096;-82
2023/05/14 09:58:02;;;;;;;;;;;20.20;99.90;;;;;;7336361;19;111226;-84
2023/05/14 10:00:33;;;;;;;;;;;20.30;99.90;;;;;;7334280;19;110681;-86
2023/05/14 10:03:06;;;;;;;;;;;20.30;99.90;;;;;;7329604;19;111553;-85
2023/05/14 10:05:38;;;;;;;;;;;20.20;99.90;;;;;;7325103;19;111290;-83
2023/05/14 10:08:08;;;;;;;;;;;20.20;99.90;;;;;;7325427;19;110721;-82
2023/05/14 10:10:36;;;;;;;;;;;20.30;99.90;;;;;;7327915;19;111582;-82
2023/05/14 10:13:04;;;;;;;;;;;20.30;99.90;;;;;;7323299;19;111603;-82
2023/05/14 10:15:51;;;;;;;;;;;20.40;99.90;;;;;;7334863;19;110290;-83
2023/05/14 10:18:21;;;;;;;;;;;20.50;99.90;;;;;;7326002;19;110830;-73
2023/05/14 10:20:58;;;;;;;;;;;20.60;99.90;;;;;;7343730;19;109608;-72
2023/05/14 10:23:26;;;;;;;;;;;20.50;99.90;;;;;;7335511;19;110555;-73
2023/05/14 10:25:53;;;;;;;;;;;20.60;99.90;;;;;;7338150;19;110259;-73
2023/05/14 10:28:20;;;;;;;;;;;20.60;99.90;;;;;;7337092;19;110485;-73
2023/05/14 10:30:48;;;;;;;;;;;20.70;99.90;;;;;;7333642;19;110152;-72
2023/05/14 10:33:17;;;;;;;;;;;20.80;99.90;;;;;;7336062;19;109393;-72
2023/05/14 10:35:50;;;;;;;;;;;20.80;99.90;;;;;;7334885;19;111258;-72
2023/05/14 10:38:20;;;;;;;;;;;20.90;99.90;;;;;;7336965;19;110580;-72
2023/05/14 10:40:47;;;;;;;;;;;21.00;99.90;;;;;;7334283;19;109791;-72
2023/05/14 10:43:15;;;;;;;;;;;21.10;99.90;;;;;;7340735;19;109635;-73
2023/05/14 10:45:42;;;;;;;;;;;21.30;99.90;;;;;;7335694;19;110198;-72
2023/05/14 10:48:09;;;;;;;;;;;21.40;99.90;;;;;;7334331;19;109401;-72
2023/05/14 10:50:37;;;;;;;;;;;21.50;99.90;;;;;;7333264;19;111361;-72
2023/05/14 10:53:05;;;;;;;;;;;21.40;99.90;;;;;;7333629;19;111943;-72
2023/05/14 10:55:32;;;;;;;;;;;21.50;99.90;;;;;;7336704;19;111187;-72
2023/05/14 10:58:00;;;;;;;;;;;21.60;99.90;;;;;;7331797;19;110250;-73
2023/05/14 11:00:27;;;;;;;;;;;21.70;99.90;;;;;;7336998;19;109623;-73
2023/05/14 11:02:56;;;;;;;;;;;21.80;99.90;;;;;;7335783;19;110527;-75
2023/05/14 11:05:26;;;;;;;;;;;21.80;99.90;;;;;;7340544;19;111553;-73
2023/05/14 11:07:55;;;;;;;;;;;21.80;99.90;;;;;;7334919;19;109936;-73
2023/05/14 11:10:24;;;;;;;;;;;21.90;99.90;;;;;;7331768;19;110096;-73
2023/05/14 11:12:52;;;;;;;;;;;21.80;99.90;;;;;;7330496;19;111021;-74
2023/05/14 11:15:22;;;;;;;;;;;21.70;99.90;;;;;;7332928;19;110397;-74
2023/05/14 11:17:50;;;;;;;;;;;21.80;99.90;;;;;;7331338;19;110252;-74
2023/05/14 11:20:18;;;;;;;;;;;21.70;99.90;;;;;;7333897;19;110426;-73
2023/05/14 11:22:46;;;;;;;;;;;21.70;99.90;;;;;;7333359;19;110368;-73
2023/05/14 11:25:13;;;;;;;;;;;21.70;99.90;;;;;;7332104;19;110069;-74
2023/05/14 11:27:42;;;;;;;;;;;21.60;99.90;;;;;;7337208;19;112322;-74
2023/05/14 11:30:12;;;;;;;;;;;21.70;99.90;;;;;;7334458;19;110730;-74
2023/05/14 11:32:40;;;;;;;;;;;21.90;99.90;;;;;;7327481;19;109936;-74
2023/05/14 11:35:08;;;;;;;;;;;22.10;99.90;;;;;;7334385;19;111005;-74
2023/05/14 11:37:35;;;;;;;;;;;22.20;99.90;;;;;;7335046;19;110083;-73
2023/05/14 11:40:06;;;;;;;;;;;22.20;99.90;;;;;;7335073;19;109706;-74
2023/05/14 11:42:35;;;;;;;;;;;22.20;99.90;;;;;;7327984;19;111855;-74
2023/05/14 11:45:03;;;;;;;;;;;22.20;99.90;;;;;;7329194;19;111564;-75
2023/05/14 11:47:30;;;;;;;;;;;22.40;99.90;;;;;;7338745;19;110051;-73
2023/05/14 11:49:58;;;;;;;;;;;22.50;99.90;;;;;;7332169;19;111115;-73
2023/05/14 11:52:25;;;;;;;;;;;22.60;99.90;;;;;;7333878;19;110497;-73
2023/05/14 11:54:52;;;;;;;;;;;22.60;99.90;;;;;;7332011;19;109834;-72
2023/05/14 11:57:20;;;;;;;;;;;22.50;99.90;;;;;;7345900;19;111792;-72
2023/05/14 11:59:48;;;;;;;;;;;22.70;99.90;;;;;;7346769;19;111578;-74
2023/05/14 12:02:16;;;;;;;;;;;22.80;99.90;;;;;;7345487;19;109876;-71
2023/05/14 12:04:48;;;;;;;;;;;22.80;99.90;;;;;;7344160;19;111195;-73
2023/05/14 12:07:15;;;;;;;;;;;23.00;99.90;;;;;;7345834;19;109631;-72
2023/05/14 12:09:48;;;;;;;;;;;23.00;99.90;;;;;;7348282;19;110398;-73
2023/05/14 12:12:20;;;;;;;;;;;22.90;99.90;;;;;;7343371;19;110180;-73
2023/05/14 12:14:48;;;;;;;;;;;23.00;99.90;;;;;;7343707;19;110246;-72
2023/05/14 12:17:16;;;;;;;;;;;23.10;99.90;;;;;;7344184;19;110081;-72
2023/05/14 12:19:44;;;;;;;;;;;23.20;99.90;;;;;;7343721;19;110865;-73
2023/05/14 12:22:16;;;;;;;;;;;23.30;99.90;;;;;;7343034;19;111453;-73
2023/05/14 12:24:51;;;;;;;;;;;23.30;99.90;;;;;;7342176;19;111177;-72
2023/05/14 12:27:21;;;;;;;;;;;23.50;99.90;;;;;;7345817;19;109888;-73
2023/05/14 12:29:48;;;;;;;;;;;23.70;99.90;;;;;;7345951;19;110359;-73
2023/05/14 12:32:16;;;;;;;;;;;23.90;99.90;;;;;;7350326;19;110964;-72
2023/05/14 12:34:43;;;;;;;;;;;24.30;99.90;;;;;;7345244;19;110166;-72
2023/05/14 12:37:10;;;;;;;;;;;24.40;99.90;;;;;;7346502;19;111569;-73
2023/05/14 12:39:37;;;;;;;;;;;24.50;99.90;;;;;;7345601;19;109987;-73
2023/05/14 12:42:04;;;;;;;;;;;24.50;99.90;;;;;;7341886;19;110435;-73
2023/05/14 12:44:32;;;;;;;;;;;24.60;99.90;;;;;;7346796;19;111148;-73
2023/05/14 12:46:59;;;;;;;;;;;24.70;99.90;;;;;;7343429;19;109535;-73
2023/05/14 12:49:26;;;;;;;;;;;24.90;99.90;;;;;;7347115;19;109311;-73
2023/05/14 12:51:53;;;;;;;;;;;25.10;99.90;;;;;;7343815;19;111166;-73
2023/05/14 12:54:42;;;;;;;;;;;25.20;99.90;;;;;;7350156;19;111195;-73
2023/05/14 12:57:09;;;;;;;;;;;24.90;98.20;;;;;;7341544;19;110162;-73
2023/05/14 12:59:36;;;;;;;;;;;24.70;99.30;;;;;;7343524;19;111656;-73
2023/05/14 13:02:03;;;;;;;;;;;24.70;99.90;;;;;;7342707;19;110110;-73
2023/05/14 13:04:31;;;;;;;;;;;24.70;99.90;;;;;;7342676;19;111074;-74
2023/05/14 13:06:59;;;;;;;;;;;24.70;99.90;;;;;;7340621;19;110982;-74
2023/05/14 13:09:27;;;;;;;;;;;24.90;99.90;;;;;;7336882;19;110507;-74
2023/05/14 13:11:55;;;;;;;;;;;24.90;99.90;;;;;;7337000;19;110652;-74
2023/05/14 13:14:22;;;;;;;;;;;25.10;99.70;;;;;;7331514;19;109975;-74
2023/05/14 13:16:49;;;;;;;;;;;25.10;99.20;;;;;;7343159;19;110894;-73
2023/05/14 13:19:17;;;;;;;;;;;25.20;98.50;;;;;;7335855;19;109440;-73
2023/05/14 13:21:44;;;;;;;;;;;25.20;97.70;;;;;;7338670;19;110287;-73
2023/05/14 13:24:11;;;;;;;;;;;25.10;96.20;;;;;;7334918;19;111513;-74
2023/05/14 13:26:39;;;;;;;;;;;25.00;95.80;;;;;;7337768;19;111066;-74
2023/05/14 13:29:06;;;;;;;;;;;25.10;99.00;;;;;;7335666;19;109810;-74
2023/05/14 13:31:33;;;;;;;;;;;25.30;95.80;;;;;;7335122;19;111244;-73
2023/05/14 13:34:01;;;;;;;;;;;25.10;94.40;;;;;;7336708;19;111991;-74
2023/05/14 13:36:29;;;;;;;;;;;25.20;95.40;;;;;;7341649;19;110270;-73
2023/05/14 13:38:57;;;;;;;;;;;25.50;97.40;;;;;;7334528;19;110925;-73
2023/05/14 13:41:25;;;;;;;;;;;25.80;97.70;;;;;;7334922;19;111965;-74
2023/05/14 13:43:52;;;;;;;;;;;26.10;98.30;;;;;;7332941;19;112970;-75
2023/05/14 13:46:20;;;;;;;;;;;26.40;96.70;;;;;;7337311;19;109632;-75
2023/05/14 13:48:47;;;;;;;;;;;26.50;97.90;;;;;;7332489;19;111394;-74
2023/05/14 13:51:18;;;;;;;;;;;26.60;94.90;;;;;;7333550;19;110422;-74
2023/05/14 13:53:45;;;;;;;;;;;26.50;93.40;;;;;;7336932;19;110225;-74
2023/05/14 13:56:12;;;;;;;;;;;26.50;93.20;;;;;;7335556;19;110021;-74
2023/05/14 13:58:39;;;;;;;;;;;26.30;91.80;;;;;;7343974;19;110938;-74
2023/05/14 14:01:07;;;;;;;;;;;26.10;92.70;;;;;;7333078;19;111329;-73
2023/05/14 14:03:34;;;;;;;;;;;26.20;94.60;;;;;;7335083;19;110205;-74
2023/05/14 14:06:02;;;;;;;;;;;26.30;94.50;;;;;;7333259;19;110335;-74
2023/05/14 14:08:29;;;;;;;;;;;26.40;93.00;;;;;;7335968;19;111027;-73
2023/05/14 14:10:57;;;;;;;;;;;26.50;93.40;;;;;;7331942;19;112871;-73
2023/05/14 14:13:24;;;;;;;;;;;26.50;94.10;;;;;;7338352;19;111519;-73